sensor_id;sensor_type;location;lat;lon;timestamp;P1;durP1;ratioP1;P2;durP2;ratioP2
44766;SDS011;30487;48.716;9.272;2023-12-20T00:02:13;3.58;;;0.80;;
44766;SDS011;30487;48.716;9.272;2023-12-20T00:04:39;1.20;;;0.70;;
44766;SDS011;30487;48.716;9.272;2023-12-20T00:07:04;1.70;;;0.85;;
44766;SDS011;30487;48.716;9.272;2023-12-20T00:09:30;2.08;;;0.70;;
44766;SDS011;30487;48.716;9.272;2023-12-20T00:11:55;1.42;;;0.65;;
44766;SDS011;30487;48.716;9.272;2023-12-20T00:14:21;1.60;;;0.60;;
44766;SDS011;30487;48.716;9.272;2023-12-20T00:16:47;1.55;;;0.60;;
44766;SDS011;30487;48.716;9.272;2023-12-20T00:19:12;1.33;;;0.60;;
44766;SDS011;30487;48.716;9.272;2023-12-20T00:21:38;0.90;;;0.50;;
44766;SDS011;30487;48.716;9.272;2023-12-20T00:24:04;1.80;;;0.77;;
44766;SDS011;30487;48.716;9.272;2023-12-20T00:26:30;1.23;;;0.60;;
44766;SDS011;30487;48.716;9.272;2023-12-20T00:28:55;1.00;;;0.60;;
44766;SDS011;30487;48.716;9.272;2023-12-20T00:31:21;1.23;;;0.60;;
44766;SDS011;30487;48.716;9.272;2023-12-20T00:33:47;0.85;;;0.50;;
44766;SDS011;30487;48.716;9.272;2023-12-20T00:36:12;1.20;;;0.50;;
44766;SDS011;30487;48.716;9.272;2023-12-20T00:38:38;0.93;;;0.50;;
44766;SDS011;30487;48.716;9.272;2023-12-20T00:41:03;1.27;;;0.50;;
44766;SDS011;30487;48.716;9.272;2023-12-20T00:43:29;0.95;;;0.60;;
44766;SDS011;30487;48.716;9.272;2023-12-20T00:45:54;0.70;;;0.50;;
44766;SDS011;30487;48.716;9.272;2023-12-20T00:48:20;1.30;;;0.45;;
44766;SDS011;30487;48.716;9.272;2023-12-20T00:50:46;1.08;;;0.50;;
44766;SDS011;30487;48.716;9.272;2023-12-20T00:53:11;0.68;;;0.40;;
44766;SDS011;30487;48.716;9.272;2023-12-20T00:55:37;1.33;;;0.60;;
44766;SDS011;30487;48.716;9.272;2023-12-20T00:58:03;1.27;;;0.55;;
44766;SDS011;30487;48.716;9.272;2023-12-20T01:00:28;1.55;;;0.50;;
44766;SDS011;30487;48.716;9.272;2023-12-20T01:02:54;1.35;;;0.50;;
44766;SDS011;30487;48.716;9.272;2023-12-20T01:05:19;1.50;;;0.60;;
44766;SDS011;30487;48.716;9.272;2023-12-20T01:07:48;1.10;;;0.40;;
44766;SDS011;30487;48.716;9.272;2023-12-20T01:10:14;1.20;;;0.50;;
44766;SDS011;30487;48.716;9.272;2023-12-20T01:12:39;0.95;;;0.50;;
44766;SDS011;30487;48.716;9.272;2023-12-20T01:15:05;0.77;;;0.50;;
44766;SDS011;30487;48.716;9.272;2023-12-20T01:17:31;0.73;;;0.50;;
44766;SDS011;30487;48.716;9.272;2023-12-20T01:19:57;0.98;;;0.47;;
44766;SDS011;30487;48.716;9.272;2023-12-20T01:22:23;0.95;;;0.43;;
44766;SDS011;30487;48.716;9.272;2023-12-20T01:24:48;0.68;;;0.40;;
44766;SDS011;30487;48.716;9.272;2023-12-20T01:27:14;0.77;;;0.43;;
44766;SDS011;30487;48.716;9.272;2023-12-20T01:29:40;0.55;;;0.40;;
44766;SDS011;30487;48.716;9.272;2023-12-20T01:32:05;1.55;;;0.50;;
44766;SDS011;30487;48.716;9.272;2023-12-20T01:34:31;1.02;;;0.35;;
44766;SDS011;30487;48.716;9.272;2023-12-20T01:36:57;1.10;;;0.40;;
44766;SDS011;30487;48.716;9.272;2023-12-20T01:39:22;2.05;;;0.57;;
44766;SDS011;30487;48.716;9.272;2023-12-20T01:41:48;2.58;;;0.60;;
44766;SDS011;30487;48.716;9.272;2023-12-20T01:44:14;1.23;;;0.50;;
44766;SDS011;30487;48.716;9.272;2023-12-20T01:46:39;0.82;;;0.47;;
44766;SDS011;30487;48.716;9.272;2023-12-20T01:49:05;0.80;;;0.40;;
44766;SDS011;30487;48.716;9.272;2023-12-20T01:51:31;0.60;;;0.40;;
44766;SDS011;30487;48.716;9.272;2023-12-20T01:53:58;0.98;;;0.40;;
44766;SDS011;30487;48.716;9.272;2023-12-20T01:56:25;1.83;;;0.60;;
44766;SDS011;30487;48.716;9.272;2023-12-20T01:58:52;0.80;;;0.43;;
44766;SDS011;30487;48.716;9.272;2023-12-20T02:01:19;1.15;;;0.50;;
44766;SDS011;30487;48.716;9.272;2023-12-20T02:03:44;1.52;;;0.40;;
44766;SDS011;30487;48.716;9.272;2023-12-20T02:06:10;1.48;;;0.60;;
44766;SDS011;30487;48.716;9.272;2023-12-20T02:08:36;1.50;;;0.55;;
44766;SDS011;30487;48.716;9.272;2023-12-20T02:11:02;1.00;;;0.50;;
44766;SDS011;30487;48.716;9.272;2023-12-20T02:13:27;1.33;;;0.60;;
44766;SDS011;30487;48.716;9.272;2023-12-20T02:15:54;1.27;;;0.68;;
44766;SDS011;30487;48.716;9.272;2023-12-20T02:18:20;1.52;;;0.50;;
44766;SDS011;30487;48.716;9.272;2023-12-20T02:20:45;1.05;;;0.60;;
44766;SDS011;30487;48.716;9.272;2023-12-20T02:23:11;1.55;;;0.50;;
44766;SDS011;30487;48.716;9.272;2023-12-20T02:25:36;1.05;;;0.50;;
44766;SDS011;30487;48.716;9.272;2023-12-20T02:28:02;1.48;;;0.50;;
44766;SDS011;30487;48.716;9.272;2023-12-20T02:30:29;1.25;;;0.63;;
44766;SDS011;30487;48.716;9.272;2023-12-20T02:32:54;0.60;;;0.40;;
44766;SDS011;30487;48.716;9.272;2023-12-20T02:35:21;2.58;;;0.65;;
44766;SDS011;30487;48.716;9.272;2023-12-20T02:37:46;2.58;;;0.50;;
44766;SDS011;30487;48.716;9.272;2023-12-20T02:40:12;1.02;;;0.40;;
44766;SDS011;30487;48.716;9.272;2023-12-20T02:42:37;1.88;;;0.50;;
44766;SDS011;30487;48.716;9.272;2023-12-20T02:45:03;1.38;;;0.50;;
44766;SDS011;30487;48.716;9.272;2023-12-20T02:47:29;1.13;;;0.50;;
44766;SDS011;30487;48.716;9.272;2023-12-20T02:49:55;2.22;;;0.57;;
44766;SDS011;30487;48.716;9.272;2023-12-20T02:52:21;1.33;;;0.52;;
44766;SDS011;30487;48.716;9.272;2023-12-20T02:54:48;2.05;;;0.50;;
44766;SDS011;30487;48.716;9.272;2023-12-20T02:57:13;0.85;;;0.50;;
44766;SDS011;30487;48.716;9.272;2023-12-20T02:59:39;0.60;;;0.40;;
44766;SDS011;30487;48.716;9.272;2023-12-20T03:02:05;0.93;;;0.50;;
44766;SDS011;30487;48.716;9.272;2023-12-20T03:04:30;1.55;;;0.50;;
44766;SDS011;30487;48.716;9.272;2023-12-20T03:06:56;0.77;;;0.40;;
44766;SDS011;30487;48.716;9.272;2023-12-20T03:09:21;0.65;;;0.40;;
44766;SDS011;30487;48.716;9.272;2023-12-20T03:11:47;1.20;;;0.50;;
44766;SDS011;30487;48.716;9.272;2023-12-20T03:14:12;0.80;;;0.40;;
44766;SDS011;30487;48.716;9.272;2023-12-20T03:16:38;0.57;;;0.38;;
44766;SDS011;30487;48.716;9.272;2023-12-20T03:19:03;0.68;;;0.40;;
44766;SDS011;30487;48.716;9.272;2023-12-20T03:21:29;1.00;;;0.40;;
44766;SDS011;30487;48.716;9.272;2023-12-20T03:23:54;0.55;;;0.38;;
44766;SDS011;30487;48.716;9.272;2023-12-20T03:26:20;0.75;;;0.40;;
44766;SDS011;30487;48.716;9.272;2023-12-20T03:28:47;1.05;;;0.40;;
44766;SDS011;30487;48.716;9.272;2023-12-20T03:31:13;0.55;;;0.30;;
44766;SDS011;30487;48.716;9.272;2023-12-20T03:33:39;0.93;;;0.45;;
44766;SDS011;30487;48.716;9.272;2023-12-20T03:36:04;0.85;;;0.40;;
44766;SDS011;30487;48.716;9.272;2023-12-20T03:38:30;0.60;;;0.38;;
44766;SDS011;30487;48.716;9.272;2023-12-20T03:40:56;0.70;;;0.30;;
44766;SDS011;30487;48.716;9.272;2023-12-20T03:43:21;1.17;;;0.38;;
44766;SDS011;30487;48.716;9.272;2023-12-20T03:45:47;0.50;;;0.30;;
44766;SDS011;30487;48.716;9.272;2023-12-20T03:48:12;1.20;;;0.38;;
44766;SDS011;30487;48.716;9.272;2023-12-20T03:50:38;1.30;;;0.45;;
44766;SDS011;30487;48.716;9.272;2023-12-20T03:53:03;1.58;;;0.47;;
44766;SDS011;30487;48.716;9.272;2023-12-20T03:55:29;0.50;;;0.30;;
44766;SDS011;30487;48.716;9.272;2023-12-20T03:57:54;0.65;;;0.40;;
44766;SDS011;30487;48.716;9.272;2023-12-20T04:00:20;1.00;;;0.47;;
44766;SDS011;30487;48.716;9.272;2023-12-20T04:02:45;0.60;;;0.40;;
44766;SDS011;30487;48.716;9.272;2023-12-20T04:05:11;1.13;;;0.50;;
44766;SDS011;30487;48.716;9.272;2023-12-20T04:07:37;1.48;;;0.38;;
44766;SDS011;30487;48.716;9.272;2023-12-20T04:10:02;1.50;;;0.40;;
44766;SDS011;30487;48.716;9.272;2023-12-20T04:12:29;0.70;;;0.30;;
44766;SDS011;30487;48.716;9.272;2023-12-20T04:14:54;0.65;;;0.40;;
44766;SDS011;30487;48.716;9.272;2023-12-20T04:17:20;0.98;;;0.30;;
44766;SDS011;30487;48.716;9.272;2023-12-20T04:19:47;0.85;;;0.38;;
44766;SDS011;30487;48.716;9.272;2023-12-20T04:22:17;0.68;;;0.35;;
44766;SDS011;30487;48.716;9.272;2023-12-20T04:24:43;0.70;;;0.30;;
44766;SDS011;30487;48.716;9.272;2023-12-20T04:27:09;0.40;;;0.30;;
44766;SDS011;30487;48.716;9.272;2023-12-20T04:29:35;0.60;;;0.40;;
44766;SDS011;30487;48.716;9.272;2023-12-20T04:32:00;0.60;;;0.38;;
44766;SDS011;30487;48.716;9.272;2023-12-20T04:34:26;1.38;;;0.30;;
44766;SDS011;30487;48.716;9.272;2023-12-20T04:36:51;0.50;;;0.30;;
44766;SDS011;30487;48.716;9.272;2023-12-20T04:39:18;0.73;;;0.30;;
44766;SDS011;30487;48.716;9.272;2023-12-20T04:41:43;1.13;;;0.30;;
44766;SDS011;30487;48.716;9.272;2023-12-20T04:44:09;0.90;;;0.32;;
44766;SDS011;30487;48.716;9.272;2023-12-20T04:46:34;1.85;;;0.30;;
44766;SDS011;30487;48.716;9.272;2023-12-20T04:49:00;0.50;;;0.25;;
44766;SDS011;30487;48.716;9.272;2023-12-20T04:51:26;0.28;;;0.20;;
44766;SDS011;30487;48.716;9.272;2023-12-20T04:53:52;0.40;;;0.22;;
44766;SDS011;30487;48.716;9.272;2023-12-20T04:56:17;0.63;;;0.30;;
44766;SDS011;30487;48.716;9.272;2023-12-20T04:58:43;0.47;;;0.30;;
44766;SDS011;30487;48.716;9.272;2023-12-20T05:01:08;0.65;;;0.30;;
44766;SDS011;30487;48.716;9.272;2023-12-20T05:03:35;0.57;;;0.30;;
44766;SDS011;30487;48.716;9.272;2023-12-20T05:06:00;0.57;;;0.20;;
44766;SDS011;30487;48.716;9.272;2023-12-20T05:08:26;0.65;;;0.20;;
44766;SDS011;30487;48.716;9.272;2023-12-20T05:10:55;2.25;;;0.40;;
44766;SDS011;30487;48.716;9.272;2023-12-20T05:13:21;1.02;;;0.20;;
44766;SDS011;30487;48.716;9.272;2023-12-20T05:15:47;1.95;;;0.20;;
44766;SDS011;30487;48.716;9.272;2023-12-20T05:18:12;0.38;;;0.30;;
44766;SDS011;30487;48.716;9.272;2023-12-20T05:20:38;1.15;;;0.30;;
44766;SDS011;30487;48.716;9.272;2023-12-20T05:23:04;0.52;;;0.30;;
44766;SDS011;30487;48.716;9.272;2023-12-20T05:25:30;0.90;;;0.20;;
44766;SDS011;30487;48.716;9.272;2023-12-20T05:27:55;0.30;;;0.20;;
44766;SDS011;30487;48.716;9.272;2023-12-20T05:30:21;1.05;;;0.30;;
44766;SDS011;30487;48.716;9.272;2023-12-20T05:32:47;0.82;;;0.20;;
44766;SDS011;30487;48.716;9.272;2023-12-20T05:35:12;1.10;;;0.30;;
44766;SDS011;30487;48.716;9.272;2023-12-20T05:37:38;0.77;;;0.30;;
44766;SDS011;30487;48.716;9.272;2023-12-20T05:40:04;1.05;;;0.22;;
44766;SDS011;30487;48.716;9.272;2023-12-20T05:42:30;0.32;;;0.20;;
44766;SDS011;30487;48.716;9.272;2023-12-20T05:44:55;0.85;;;0.20;;
44766;SDS011;30487;48.716;9.272;2023-12-20T05:47:21;0.52;;;0.30;;
44766;SDS011;30487;48.716;9.272;2023-12-20T05:49:46;0.63;;;0.20;;
44766;SDS011;30487;48.716;9.272;2023-12-20T05:52:12;0.55;;;0.30;;
44766;SDS011;30487;48.716;9.272;2023-12-20T05:54:38;1.65;;;0.30;;
44766;SDS011;30487;48.716;9.272;2023-12-20T05:57:03;0.65;;;0.20;;
44766;SDS011;30487;48.716;9.272;2023-12-20T05:59:29;0.65;;;0.20;;
44766;SDS011;30487;48.716;9.272;2023-12-20T06:01:54;1.48;;;0.20;;
44766;SDS011;30487;48.716;9.272;2023-12-20T06:04:20;0.38;;;0.20;;
44766;SDS011;30487;48.716;9.272;2023-12-20T06:06:46;2.38;;;0.30;;
44766;SDS011;30487;48.716;9.272;2023-12-20T06:09:12;0.38;;;0.20;;
44766;SDS011;30487;48.716;9.272;2023-12-20T06:11:37;1.23;;;0.30;;
44766;SDS011;30487;48.716;9.272;2023-12-20T06:14:03;0.93;;;0.30;;
44766;SDS011;30487;48.716;9.272;2023-12-20T06:16:28;1.10;;;0.38;;
44766;SDS011;30487;48.716;9.272;2023-12-20T06:18:54;4.25;;;0.30;;
44766;SDS011;30487;48.716;9.272;2023-12-20T06:21:19;2.08;;;0.30;;
44766;SDS011;30487;48.716;9.272;2023-12-20T06:23:45;0.65;;;0.20;;
44766;SDS011;30487;48.716;9.272;2023-12-20T06:26:10;0.40;;;0.22;;
44766;SDS011;30487;48.716;9.272;2023-12-20T06:28:36;0.40;;;0.20;;
44766;SDS011;30487;48.716;9.272;2023-12-20T06:31:02;0.82;;;0.30;;
44766;SDS011;30487;48.716;9.272;2023-12-20T06:33:28;0.20;;;0.20;;
44766;SDS011;30487;48.716;9.272;2023-12-20T06:35:55;0.65;;;0.30;;
44766;SDS011;30487;48.716;9.272;2023-12-20T06:38:21;0.57;;;0.30;;
44766;SDS011;30487;48.716;9.272;2023-12-20T06:40:47;1.13;;;0.73;;
44766;SDS011;30487;48.716;9.272;2023-12-20T06:43:13;3.08;;;0.50;;
44766;SDS011;30487;48.716;9.272;2023-12-20T06:45:38;0.90;;;0.50;;
44766;SDS011;30487;48.716;9.272;2023-12-20T06:48:04;1.75;;;0.40;;
44766;SDS011;30487;48.716;9.272;2023-12-20T06:50:30;0.52;;;0.30;;
44766;SDS011;30487;48.716;9.272;2023-12-20T06:52:56;1.55;;;0.40;;
44766;SDS011;30487;48.716;9.272;2023-12-20T06:55:21;0.90;;;0.40;;
44766;SDS011;30487;48.716;9.272;2023-12-20T06:57:48;1.27;;;0.47;;
44766;SDS011;30487;48.716;9.272;2023-12-20T07:00:13;0.50;;;0.32;;
44766;SDS011;30487;48.716;9.272;2023-12-20T07:02:39;1.60;;;0.40;;
44766;SDS011;30487;48.716;9.272;2023-12-20T07:05:05;1.63;;;0.55;;
44766;SDS011;30487;48.716;9.272;2023-12-20T07:07:31;1.95;;;0.50;;
44766;SDS011;30487;48.716;9.272;2023-12-20T07:09:56;1.42;;;0.57;;
44766;SDS011;30487;48.716;9.272;2023-12-20T07:12:22;2.15;;;0.40;;
44766;SDS011;30487;48.716;9.272;2023-12-20T07:14:48;1.15;;;0.50;;
44766;SDS011;30487;48.716;9.272;2023-12-20T07:17:13;1.75;;;0.70;;
44766;SDS011;30487;48.716;9.272;2023-12-20T07:19:40;1.02;;;0.50;;
44766;SDS011;30487;48.716;9.272;2023-12-20T07:22:06;1.75;;;0.50;;
44766;SDS011;30487;48.716;9.272;2023-12-20T07:24:32;0.75;;;0.32;;
44766;SDS011;30487;48.716;9.272;2023-12-20T07:26:59;2.05;;;0.50;;
44766;SDS011;30487;48.716;9.272;2023-12-20T07:29:25;2.83;;;0.43;;
44766;SDS011;30487;48.716;9.272;2023-12-20T07:31:50;2.30;;;0.60;;
44766;SDS011;30487;48.716;9.272;2023-12-20T07:34:18;0.93;;;0.40;;
44766;SDS011;30487;48.716;9.272;2023-12-20T07:36:47;0.88;;;0.40;;
44766;SDS011;30487;48.716;9.272;2023-12-20T07:39:12;1.95;;;0.50;;
44766;SDS011;30487;48.716;9.272;2023-12-20T07:41:38;1.48;;;0.50;;
44766;SDS011;30487;48.716;9.272;2023-12-20T07:44:04;2.97;;;0.80;;
44766;SDS011;30487;48.716;9.272;2023-12-20T07:46:31;0.98;;;0.50;;
44766;SDS011;30487;48.716;9.272;2023-12-20T07:48:57;0.70;;;0.50;;
44766;SDS011;30487;48.716;9.272;2023-12-20T07:51:23;1.83;;;0.70;;
44766;SDS011;30487;48.716;9.272;2023-12-20T07:53:48;4.03;;;0.80;;
44766;SDS011;30487;48.716;9.272;2023-12-20T07:56:17;1.17;;;0.63;;
44766;SDS011;30487;48.716;9.272;2023-12-20T07:58:44;2.03;;;0.88;;
44766;SDS011;30487;48.716;9.272;2023-12-20T08:01:10;3.30;;;1.23;;
44766;SDS011;30487;48.716;9.272;2023-12-20T08:03:37;2.58;;;1.10;;
44766;SDS011;30487;48.716;9.272;2023-12-20T08:06:03;1.88;;;1.10;;
44766;SDS011;30487;48.716;9.272;2023-12-20T08:08:29;3.08;;;1.08;;
44766;SDS011;30487;48.716;9.272;2023-12-20T08:10:55;2.10;;;1.00;;
44766;SDS011;30487;48.716;9.272;2023-12-20T08:13:22;3.03;;;1.25;;
44766;SDS011;30487;48.716;9.272;2023-12-20T08:15:51;3.63;;;1.50;;
44766;SDS011;30487;48.716;9.272;2023-12-20T08:18:17;3.28;;;1.30;;
44766;SDS011;30487;48.716;9.272;2023-12-20T08:20:42;2.97;;;1.33;;
44766;SDS011;30487;48.716;9.272;2023-12-20T08:23:08;2.95;;;1.33;;
44766;SDS011;30487;48.716;9.272;2023-12-20T08:25:33;2.38;;;1.20;;
44766;SDS011;30487;48.716;9.272;2023-12-20T08:27:59;3.33;;;1.20;;
44766;SDS011;30487;48.716;9.272;2023-12-20T08:30:25;2.92;;;1.45;;
44766;SDS011;30487;48.716;9.272;2023-12-20T08:32:51;2.88;;;1.40;;
44766;SDS011;30487;48.716;9.272;2023-12-20T08:35:16;2.35;;;1.40;;
44766;SDS011;30487;48.716;9.272;2023-12-20T08:37:43;3.72;;;1.60;;
44766;SDS011;30487;48.716;9.272;2023-12-20T08:40:10;3.28;;;1.55;;
44766;SDS011;30487;48.716;9.272;2023-12-20T08:42:35;2.53;;;1.27;;
44766;SDS011;30487;48.716;9.272;2023-12-20T08:45:01;2.30;;;1.48;;
44766;SDS011;30487;48.716;9.272;2023-12-20T08:47:29;2.63;;;1.50;;
44766;SDS011;30487;48.716;9.272;2023-12-20T08:49:55;4.53;;;1.85;;
44766;SDS011;30487;48.716;9.272;2023-12-20T08:52:23;3.70;;;1.55;;
44766;SDS011;30487;48.716;9.272;2023-12-20T08:54:49;5.40;;;1.52;;
44766;SDS011;30487;48.716;9.272;2023-12-20T08:57:21;5.10;;;1.75;;
44766;SDS011;30487;48.716;9.272;2023-12-20T08:59:48;3.05;;;1.65;;
44766;SDS011;30487;48.716;9.272;2023-12-20T09:02:14;4.32;;;1.77;;
44766;SDS011;30487;48.716;9.272;2023-12-20T09:04:41;2.50;;;1.48;;
44766;SDS011;30487;48.716;9.272;2023-12-20T09:07:06;4.55;;;1.70;;
44766;SDS011;30487;48.716;9.272;2023-12-20T09:09:45;2.83;;;1.40;;
44766;SDS011;30487;48.716;9.272;2023-12-20T09:12:10;3.78;;;1.42;;
44766;SDS011;30487;48.716;9.272;2023-12-20T09:14:36;4.10;;;1.33;;
44766;SDS011;30487;48.716;9.272;2023-12-20T09:17:02;4.63;;;1.45;;
44766;SDS011;30487;48.716;9.272;2023-12-20T09:19:28;4.93;;;1.33;;
44766;SDS011;30487;48.716;9.272;2023-12-20T09:21:54;3.03;;;1.17;;
44766;SDS011;30487;48.716;9.272;2023-12-20T09:24:20;3.38;;;1.45;;
44766;SDS011;30487;48.716;9.272;2023-12-20T09:26:45;3.13;;;1.20;;
44766;SDS011;30487;48.716;9.272;2023-12-20T09:29:11;2.40;;;1.10;;
44766;SDS011;30487;48.716;9.272;2023-12-20T09:31:40;4.38;;;1.23;;
44766;SDS011;30487;48.716;9.272;2023-12-20T09:34:08;3.15;;;1.40;;
44766;SDS011;30487;48.716;9.272;2023-12-20T09:36:34;3.15;;;1.13;;
44766;SDS011;30487;48.716;9.272;2023-12-20T09:39:01;4.10;;;1.10;;
44766;SDS011;30487;48.716;9.272;2023-12-20T09:41:27;2.38;;;1.10;;
44766;SDS011;30487;48.716;9.272;2023-12-20T09:43:56;2.85;;;1.35;;
44766;SDS011;30487;48.716;9.272;2023-12-20T09:46:27;3.08;;;1.20;;
44766;SDS011;30487;48.716;9.272;2023-12-20T09:48:58;3.38;;;1.13;;
44766;SDS011;30487;48.716;9.272;2023-12-20T09:51:25;5.80;;;1.30;;
44766;SDS011;30487;48.716;9.272;2023-12-20T09:53:53;7.57;;;1.17;;
44766;SDS011;30487;48.716;9.272;2023-12-20T09:56:20;3.80;;;1.23;;
44766;SDS011;30487;48.716;9.272;2023-12-20T09:58:47;3.05;;;1.20;;
44766;SDS011;30487;48.716;9.272;2023-12-20T10:01:13;3.67;;;1.20;;
44766;SDS011;30487;48.716;9.272;2023-12-20T10:03:40;2.33;;;1.13;;
44766;SDS011;30487;48.716;9.272;2023-12-20T10:06:07;3.65;;;1.05;;
44766;SDS011;30487;48.716;9.272;2023-12-20T10:08:32;4.97;;;1.00;;
44766;SDS011;30487;48.716;9.272;2023-12-20T10:10:58;4.65;;;1.02;;
44766;SDS011;30487;48.716;9.272;2023-12-20T10:13:27;3.80;;;1.08;;
44766;SDS011;30487;48.716;9.272;2023-12-20T10:15:54;3.80;;;1.00;;
44766;SDS011;30487;48.716;9.272;2023-12-20T10:18:20;4.47;;;0.88;;
44766;SDS011;30487;48.716;9.272;2023-12-20T10:20:46;4.13;;;1.00;;
44766;SDS011;30487;48.716;9.272;2023-12-20T10:23:12;4.82;;;1.33;;
44766;SDS011;30487;48.716;9.272;2023-12-20T10:25:38;6.10;;;1.05;;
44766;SDS011;30487;48.716;9.272;2023-12-20T10:28:11;6.45;;;1.00;;
44766;SDS011;30487;48.716;9.272;2023-12-20T10:30:38;5.80;;;0.70;;
44766;SDS011;30487;48.716;9.272;2023-12-20T10:33:08;5.35;;;0.77;;
44766;SDS011;30487;48.716;9.272;2023-12-20T10:35:34;5.65;;;1.05;;
44766;SDS011;30487;48.716;9.272;2023-12-20T10:38:03;3.25;;;0.90;;
44766;SDS011;30487;48.716;9.272;2023-12-20T10:40:30;4.97;;;1.00;;
44766;SDS011;30487;48.716;9.272;2023-12-20T10:42:56;5.75;;;0.85;;
44766;SDS011;30487;48.716;9.272;2023-12-20T10:45:23;3.65;;;0.93;;
44766;SDS011;30487;48.716;9.272;2023-12-20T10:47:49;5.50;;;1.17;;
44766;SDS011;30487;48.716;9.272;2023-12-20T10:50:15;4.25;;;1.00;;
44766;SDS011;30487;48.716;9.272;2023-12-20T10:52:41;5.35;;;0.85;;
44766;SDS011;30487;48.716;9.272;2023-12-20T10:55:09;3.70;;;0.95;;
44766;SDS011;30487;48.716;9.272;2023-12-20T10:57:35;6.95;;;0.90;;
44766;SDS011;30487;48.716;9.272;2023-12-20T11:00:02;3.60;;;0.82;;
44766;SDS011;30487;48.716;9.272;2023-12-20T11:02:29;5.03;;;0.88;;
44766;SDS011;30487;48.716;9.272;2023-12-20T11:05:05;3.70;;;0.75;;
44766;SDS011;30487;48.716;9.272;2023-12-20T11:07:40;4.80;;;0.90;;
44766;SDS011;30487;48.716;9.272;2023-12-20T11:12:53;2.97;;;0.80;;
44766;SDS011;30487;48.716;9.272;2023-12-20T11:15:23;4.75;;;0.93;;
44766;SDS011;30487;48.716;9.272;2023-12-20T11:17:55;5.90;;;0.80;;
44766;SDS011;30487;48.716;9.272;2023-12-20T11:20:22;5.57;;;0.95;;
44766;SDS011;30487;48.716;9.272;2023-12-20T11:22:52;4.57;;;1.00;;
44766;SDS011;30487;48.716;9.272;2023-12-20T11:25:18;4.72;;;0.90;;
44766;SDS011;30487;48.716;9.272;2023-12-20T11:27:44;4.93;;;1.00;;
44766;SDS011;30487;48.716;9.272;2023-12-20T11:30:48;6.80;;;1.10;;
44766;SDS011;30487;48.716;9.272;2023-12-20T11:33:25;4.57;;;1.15;;
44766;SDS011;30487;48.716;9.272;2023-12-20T11:35:52;2.20;;;0.90;;
44766;SDS011;30487;48.716;9.272;2023-12-20T11:38:21;3.42;;;0.90;;
44766;SDS011;30487;48.716;9.272;2023-12-20T11:40:48;2.45;;;0.70;;
44766;SDS011;30487;48.716;9.272;2023-12-20T11:46:04;6.10;;;1.10;;
44766;SDS011;30487;48.716;9.272;2023-12-20T11:48:30;1.85;;;0.70;;
44766;SDS011;30487;48.716;9.272;2023-12-20T11:50:56;3.83;;;0.90;;
44766;SDS011;30487;48.716;9.272;2023-12-20T11:53:22;6.20;;;1.10;;
44766;SDS011;30487;48.716;9.272;2023-12-20T11:55:48;3.83;;;0.95;;
44766;SDS011;30487;48.716;9.272;2023-12-20T11:58:14;5.82;;;1.08;;
44766;SDS011;30487;48.716;9.272;2023-12-20T12:00:41;4.50;;;0.90;;
44766;SDS011;30487;48.716;9.272;2023-12-20T12:03:08;5.47;;;0.60;;
44766;SDS011;30487;48.716;9.272;2023-12-20T12:05:34;4.40;;;0.75;;
44766;SDS011;30487;48.716;9.272;2023-12-20T12:08:00;6.03;;;1.05;;
44766;SDS011;30487;48.716;9.272;2023-12-20T12:10:26;6.72;;;1.00;;
44766;SDS011;30487;48.716;9.272;2023-12-20T12:12:52;5.45;;;0.75;;
44766;SDS011;30487;48.716;9.272;2023-12-20T12:15:17;5.72;;;1.20;;
44766;SDS011;30487;48.716;9.272;2023-12-20T12:17:43;5.97;;;1.20;;
44766;SDS011;30487;48.716;9.272;2023-12-20T12:20:09;3.33;;;1.00;;
44766;SDS011;30487;48.716;9.272;2023-12-20T12:22:35;6.32;;;1.40;;
44766;SDS011;30487;48.716;9.272;2023-12-20T12:25:11;8.38;;;0.93;;
44766;SDS011;30487;48.716;9.272;2023-12-20T12:27:41;3.85;;;0.93;;
44766;SDS011;30487;48.716;9.272;2023-12-20T12:30:08;5.07;;;0.90;;
44766;SDS011;30487;48.716;9.272;2023-12-20T12:32:35;4.75;;;0.88;;
44766;SDS011;30487;48.716;9.272;2023-12-20T12:35:02;5.15;;;0.98;;
44766;SDS011;30487;48.716;9.272;2023-12-20T12:37:31;4.15;;;0.75;;
44766;SDS011;30487;48.716;9.272;2023-12-20T12:39:59;4.90;;;0.90;;
44766;SDS011;30487;48.716;9.272;2023-12-20T12:42:24;6.30;;;1.10;;
44766;SDS011;30487;48.716;9.272;2023-12-20T12:44:53;4.78;;;0.77;;
44766;SDS011;30487;48.716;9.272;2023-12-20T12:47:19;3.45;;;0.70;;
44766;SDS011;30487;48.716;9.272;2023-12-20T12:49:45;7.30;;;1.27;;
44766;SDS011;30487;48.716;9.272;2023-12-20T12:52:11;2.53;;;0.90;;
44766;SDS011;30487;48.716;9.272;2023-12-20T12:54:36;3.83;;;0.93;;
44766;SDS011;30487;48.716;9.272;2023-12-20T12:57:02;5.75;;;1.08;;
44766;SDS011;30487;48.716;9.272;2023-12-20T12:59:28;4.13;;;0.90;;
44766;SDS011;30487;48.716;9.272;2023-12-20T13:01:54;5.63;;;0.90;;
44766;SDS011;30487;48.716;9.272;2023-12-20T13:04:19;3.05;;;0.85;;
44766;SDS011;30487;48.716;9.272;2023-12-20T13:06:45;3.67;;;0.73;;
44766;SDS011;30487;48.716;9.272;2023-12-20T13:09:12;4.65;;;1.15;;
44766;SDS011;30487;48.716;9.272;2023-12-20T13:11:37;4.97;;;0.80;;
44766;SDS011;30487;48.716;9.272;2023-12-20T13:14:03;3.78;;;0.75;;
44766;SDS011;30487;48.716;9.272;2023-12-20T13:16:28;7.32;;;1.10;;
44766;SDS011;30487;48.716;9.272;2023-12-20T13:18:54;3.60;;;0.93;;
44766;SDS011;30487;48.716;9.272;2023-12-20T13:21:21;4.60;;;0.95;;
44766;SDS011;30487;48.716;9.272;2023-12-20T13:23:46;3.90;;;0.80;;
44766;SDS011;30487;48.716;9.272;2023-12-20T13:26:12;5.28;;;1.20;;
44766;SDS011;30487;48.716;9.272;2023-12-20T13:28:37;6.40;;;1.08;;
44766;SDS011;30487;48.716;9.272;2023-12-20T13:31:03;2.78;;;0.70;;
44766;SDS011;30487;48.716;9.272;2023-12-20T13:33:28;6.95;;;0.88;;
44766;SDS011;30487;48.716;9.272;2023-12-20T13:35:54;3.25;;;0.80;;
44766;SDS011;30487;48.716;9.272;2023-12-20T13:38:21;4.00;;;0.88;;
44766;SDS011;30487;48.716;9.272;2023-12-20T13:40:46;5.15;;;1.17;;
44766;SDS011;30487;48.716;9.272;2023-12-20T13:43:12;5.07;;;1.05;;
44766;SDS011;30487;48.716;9.272;2023-12-20T13:45:38;4.78;;;1.33;;
44766;SDS011;30487;48.716;9.272;2023-12-20T13:48:04;5.40;;;1.00;;
44766;SDS011;30487;48.716;9.272;2023-12-20T13:50:30;4.05;;;1.00;;
44766;SDS011;30487;48.716;9.272;2023-12-20T13:52:55;3.97;;;0.80;;
44766;SDS011;30487;48.716;9.272;2023-12-20T13:55:21;6.63;;;0.80;;
44766;SDS011;30487;48.716;9.272;2023-12-20T13:57:50;6.47;;;0.88;;
44766;SDS011;30487;48.716;9.272;2023-12-20T14:00:16;3.08;;;0.73;;
44766;SDS011;30487;48.716;9.272;2023-12-20T14:02:41;2.13;;;0.60;;
44766;SDS011;30487;48.716;9.272;2023-12-20T14:05:08;2.97;;;0.88;;
44766;SDS011;30487;48.716;9.272;2023-12-20T14:07:34;3.78;;;0.80;;
44766;SDS011;30487;48.716;9.272;2023-12-20T14:10:00;4.25;;;0.70;;
44766;SDS011;30487;48.716;9.272;2023-12-20T14:12:25;4.63;;;0.88;;
44766;SDS011;30487;48.716;9.272;2023-12-20T14:14:51;4.78;;;0.88;;
44766;SDS011;30487;48.716;9.272;2023-12-20T14:17:17;7.53;;;1.05;;
44766;SDS011;30487;48.716;9.272;2023-12-20T14:19:43;3.75;;;0.77;;
44766;SDS011;30487;48.716;9.272;2023-12-20T14:22:08;3.92;;;0.70;;
44766;SDS011;30487;48.716;9.272;2023-12-20T14:24:35;4.65;;;1.00;;
44766;SDS011;30487;48.716;9.272;2023-12-20T14:27:01;5.68;;;1.08;;
44766;SDS011;30487;48.716;9.272;2023-12-20T14:29:26;4.43;;;0.88;;
44766;SDS011;30487;48.716;9.272;2023-12-20T14:31:52;4.90;;;0.80;;
44766;SDS011;30487;48.716;9.272;2023-12-20T14:34:18;5.82;;;0.95;;
44766;SDS011;30487;48.716;9.272;2023-12-20T14:36:43;5.40;;;0.90;;
44766;SDS011;30487;48.716;9.272;2023-12-20T14:39:09;6.57;;;1.05;;
44766;SDS011;30487;48.716;9.272;2023-12-20T14:41:37;5.35;;;0.95;;
44766;SDS011;30487;48.716;9.272;2023-12-20T14:44:05;3.90;;;0.95;;
44766;SDS011;30487;48.716;9.272;2023-12-20T14:46:30;4.70;;;0.80;;
44766;SDS011;30487;48.716;9.272;2023-12-20T14:48:56;5.50;;;1.00;;